Lubny, Ukraine
Current Conditions -  °F | °C
As of 2:30 PM on Monday 20 Oct 2014 (Local Time) from UKBB Reporting Station
Rain Showers Rain Showers  
Wind Chill: 61°   Ceiling: 3200
Heat Index: 61°   Visibility: 6mi
Dew Point: 48°   Wind: 9mph
Humidity: 63%   Direction: 260°W
Pressure: 29.71"   Gusts: NA
Location:  50.02°N, 33.01°E
Report Text: UKBB 201130Z 26004MPS 9999 -SHRA SCT030CB BKN032 16/09 Q1006 88CLRD95 TEMPO 24012G17MPS 2000 -SHRA SCT012CB BKN020
Loading
Personal Weather Stations






























Interactive Weather Map
Tropical Storm Tracking
New forecast layout! Learn more

10-Day Weather Forecast

Advertisements
Track Severe Weather on mobile